createdAt,value
2023-04-26T00:00:45.872Z,89.60
2023-04-26T00:02:51.536Z,89.70
2023-04-26T00:05:02.666Z,89.90
2023-04-26T00:07:08.569Z,90.70
2023-04-26T00:09:13.679Z,90.90
2023-04-26T00:11:19.205Z,90.60
2023-04-26T00:13:24.872Z,90.70
2023-04-26T00:15:30.378Z,91.10
2023-04-26T00:17:35.576Z,91.20
2023-04-26T00:19:41.200Z,91.40
2023-04-26T00:21:49.165Z,91.30
2023-04-26T00:23:54.979Z,91.60
2023-04-26T00:26:00.588Z,91.30
2023-04-26T00:28:05.772Z,91.20
2023-04-26T00:30:13.217Z,91.70
2023-04-26T00:32:18.314Z,91.80
2023-04-26T00:34:25.219Z,92.10
2023-04-26T00:36:30.322Z,92.10
2023-04-26T00:38:39.884Z,91.70
2023-04-26T00:40:44.975Z,92.30
2023-04-26T00:42:50.066Z,92.30
2023-04-26T00:44:57.613Z,92.40
2023-04-26T00:47:04.009Z,92.50
2023-04-26T00:49:13.095Z,92.50
2023-04-26T00:51:19.379Z,92.60
2023-04-26T00:53:25.265Z,92.90
2023-04-26T00:55:33.755Z,93.00
2023-04-26T00:57:38.941Z,93.30
2023-04-26T00:59:44.940Z,93.00
2023-04-26T01:01:50.853Z,92.50
2023-04-26T01:03:56.255Z,92.50
2023-04-26T01:06:02.033Z,92.20
2023-04-26T01:08:07.940Z,92.60
2023-04-26T01:10:14.321Z,92.20
2023-04-26T01:12:23.632Z,92.40
2023-04-26T01:14:29.387Z,92.30
2023-04-26T01:16:35.680Z,92.30
2023-04-26T01:18:41.283Z,92.60
2023-04-26T01:20:47.771Z,93.00
2023-04-26T01:22:56.560Z,93.50
2023-04-26T01:25:02.403Z,93.60
2023-04-26T01:27:08.136Z,93.40
2023-04-26T01:29:21.225Z,92.80
2023-04-26T01:31:26.553Z,93.40
2023-04-26T01:33:31.716Z,93.70
2023-04-26T01:35:37.383Z,93.50
2023-04-26T01:37:42.593Z,92.80
2023-04-26T01:39:50.603Z,93.30
2023-04-26T01:42:01.243Z,93.20
2023-04-26T01:44:10.493Z,93.60
2023-04-26T01:46:15.950Z,93.20
2023-04-26T01:48:21.093Z,93.30
2023-04-26T01:50:27.385Z,93.60
2023-04-26T01:52:32.464Z,93.90
2023-04-26T01:54:38.258Z,94.10
2023-04-26T01:56:45.999Z,94.30
2023-04-26T01:58:51.386Z,94.50
2023-04-26T02:00:56.682Z,94.60
2023-04-26T02:03:02.059Z,94.30
2023-04-26T02:05:09.722Z,94.40
2023-04-26T02:07:15.710Z,94.30
2023-04-26T02:09:24.020Z,94.60
2023-04-26T02:11:30.074Z,94.50
2023-04-26T02:13:38.958Z,94.20
2023-04-26T02:15:44.162Z,94.30
2023-04-26T02:17:49.767Z,94.70
2023-04-26T02:19:55.031Z,94.40
2023-04-26T02:22:01.979Z,94.30
2023-04-26T02:24:08.508Z,94.30
2023-04-26T02:26:14.511Z,94.40
2023-04-26T02:28:21.894Z,94.40
2023-04-26T02:30:29.601Z,94.30
2023-04-26T02:32:34.767Z,94.60
2023-04-26T02:34:40.765Z,95.00
2023-04-26T02:36:46.804Z,94.50
2023-04-26T02:38:53.429Z,94.40
2023-04-26T02:41:02.362Z,94.30
2023-04-26T02:43:08.996Z,94.20
2023-04-26T02:45:17.255Z,94.20
2023-04-26T02:47:24.986Z,94.40
2023-04-26T02:49:30.183Z,94.50
2023-04-26T02:51:35.580Z,94.70
2023-04-26T02:53:40.688Z,95.00
2023-04-26T02:55:46.790Z,95.10
2023-04-26T02:57:51.884Z,95.10
2023-04-26T02:59:57.755Z,95.20
2023-04-26T03:02:03.128Z,95.20
2023-04-26T03:04:11.424Z,95.20
2023-04-26T03:06:17.903Z,95.30
2023-04-26T03:08:23.408Z,95.10
2023-04-26T03:10:28.609Z,94.70
2023-04-26T03:12:34.656Z,94.50
2023-04-26T03:14:40.696Z,94.30
2023-04-26T03:16:48.622Z,94.60
2023-04-26T03:18:54.500Z,94.70
2023-04-26T03:21:02.404Z,95.10
2023-04-26T03:23:08.619Z,94.70
2023-04-26T03:25:18.656Z,95.10
2023-04-26T03:27:24.164Z,95.00
2023-04-26T03:29:29.328Z,94.80
2023-04-26T03:31:34.648Z,95.10
2023-04-26T03:33:41.079Z,94.60
2023-04-26T03:35:46.896Z,94.40
2023-04-26T03:37:56.579Z,94.70
2023-04-26T03:40:03.188Z,94.60
2023-04-26T03:42:11.761Z,94.40
2023-04-26T03:44:17.701Z,94.50
2023-04-26T03:46:23.374Z,94.60
2023-04-26T03:48:28.982Z,94.50
2023-04-26T03:50:34.073Z,94.60
2023-04-26T03:52:39.184Z,94.90
2023-04-26T03:54:47.583Z,94.50
2023-04-26T03:56:53.059Z,94.70
2023-04-26T03:58:58.754Z,94.80
2023-04-26T04:01:05.075Z,94.90
2023-04-26T04:03:10.688Z,94.90
2023-04-26T04:05:16.477Z,94.90
2023-04-26T04:07:21.901Z,94.90
2023-04-26T04:09:27.613Z,94.60
2023-04-26T04:11:35.561Z,94.50
2023-04-26T04:13:40.640Z,94.70
2023-04-26T04:15:46.376Z,94.90
2023-04-26T04:17:52.253Z,94.10
2023-04-26T04:19:57.512Z,94.10
2023-04-26T04:22:02.607Z,94.30
2023-04-26T04:24:08.919Z,94.20
2023-04-26T04:26:14.881Z,94.10
2023-04-26T04:28:22.958Z,94.50
2023-04-26T04:30:30.794Z,94.40
2023-04-26T04:32:36.456Z,94.20
2023-04-26T04:34:42.430Z,94.50
2023-04-26T04:36:47.840Z,94.40
2023-04-26T04:38:53.883Z,94.30
2023-04-26T04:41:03.669Z,94.40
2023-04-26T04:43:09.204Z,94.60
2023-04-26T04:45:17.845Z,94.60
2023-04-26T04:47:23.559Z,94.70
2023-04-26T04:49:30.816Z,94.80
2023-04-26T04:51:37.070Z,94.90
2023-04-26T04:53:42.192Z,94.70
2023-04-26T04:55:49.321Z,94.60
2023-04-26T04:57:55.367Z,94.70
2023-04-26T05:00:11.801Z,94.60
2023-04-26T05:02:26.802Z,94.50
2023-04-26T05:04:35.083Z,94.30
2023-04-26T05:06:41.260Z,94.30
2023-04-26T05:08:46.807Z,94.10
2023-04-26T05:10:52.352Z,94.30
2023-04-26T05:12:57.952Z,94.30
2023-04-26T05:15:03.175Z,94.40
2023-04-26T05:17:09.420Z,94.20
2023-04-26T05:19:18.234Z,93.80
2023-04-26T05:21:26.005Z,93.90
2023-04-26T05:23:31.252Z,93.60
2023-04-26T05:25:40.609Z,93.60
2023-04-26T05:28:08.226Z,93.80
2023-04-26T05:30:36.957Z,93.80
2023-04-26T05:33:02.319Z,93.60
2023-04-26T05:35:15.786Z,93.60
2023-04-26T05:37:20.880Z,93.50
2023-04-26T05:39:26.059Z,93.60
2023-04-26T05:41:31.169Z,93.80
2023-04-26T05:43:36.436Z,93.60
2023-04-26T05:45:53.487Z,93.60
2023-04-26T05:47:58.748Z,93.60
2023-04-26T05:50:04.975Z,93.70
2023-04-26T05:52:13.475Z,93.70
2023-04-26T05:54:19.738Z,93.30
2023-04-26T05:56:27.846Z,93.30
2023-04-26T05:58:34.044Z,93.30
2023-04-26T06:00:41.706Z,93.10
2023-04-26T06:02:47.289Z,93.10
2023-04-26T06:04:56.216Z,92.80
2023-04-26T06:07:01.563Z,92.70
2023-04-26T06:09:10.024Z,92.10
2023-04-26T06:11:15.179Z,91.80
2023-04-26T06:13:21.446Z,91.80
2023-04-26T06:15:27.894Z,91.70
2023-04-26T06:17:33.896Z,92.10
2023-04-26T06:19:39.228Z,91.60
2023-04-26T06:21:47.161Z,91.40
2023-04-26T06:23:52.512Z,90.80
2023-04-26T06:26:02.191Z,91.00
2023-04-26T06:28:08.328Z,91.00
2023-04-26T06:30:14.338Z,90.60
2023-04-26T06:32:23.563Z,89.90
2023-04-26T06:34:28.794Z,89.10
2023-04-26T06:36:35.173Z,88.80
2023-04-26T06:38:40.452Z,87.80
2023-04-26T06:40:48.254Z,88.30
2023-04-26T06:42:57.943Z,88.40
2023-04-26T06:45:24.521Z,87.50
2023-04-26T06:47:31.578Z,87.00
2023-04-26T06:49:37.769Z,86.50
2023-04-26T06:51:44.676Z,85.80
2023-04-26T06:53:49.919Z,84.00
2023-04-26T06:55:57.630Z,84.70
2023-04-26T06:58:08.043Z,83.90
2023-04-26T07:00:15.723Z,83.10
2023-04-26T07:02:23.709Z,82.20
2023-04-26T07:04:29.159Z,82.70
2023-04-26T07:06:34.803Z,76.60
2023-04-26T07:08:39.952Z,78.90
2023-04-26T07:10:45.883Z,81.90
2023-04-26T07:12:51.891Z,81.20
2023-04-26T07:15:01.508Z,79.40
2023-04-26T07:17:06.862Z,75.90
2023-04-26T07:19:11.988Z,75.60
2023-04-26T07:21:17.138Z,71.10
2023-04-26T07:23:23.199Z,71.70
2023-04-26T07:25:28.368Z,75.90
2023-04-26T07:27:33.926Z,77.20
2023-04-26T07:29:38.997Z,72.70
2023-04-26T07:31:46.655Z,75.30
2023-04-26T07:33:52.498Z,71.00
2023-04-26T07:35:59.765Z,69.70
2023-04-26T07:38:05.246Z,70.90
2023-04-26T07:40:13.735Z,68.50
2023-04-26T07:42:18.933Z,67.70
2023-04-26T07:44:24.019Z,63.80
2023-04-26T07:46:29.098Z,66.10
2023-04-26T07:48:37.023Z,67.40
2023-04-26T07:50:42.540Z,69.90
2023-04-26T07:52:47.650Z,67.60
2023-04-26T07:54:52.744Z,67.70
2023-04-26T07:56:57.923Z,65.70
2023-04-26T07:59:04.043Z,64.90
2023-04-26T08:01:10.192Z,64.10
2023-04-26T08:03:18.161Z,66.70
2023-04-26T08:05:26.460Z,65.90
2023-04-26T08:07:31.748Z,63.30
2023-04-26T08:09:36.859Z,65.40
2023-04-26T08:11:42.211Z,64.10
2023-04-26T08:13:47.495Z,64.50
2023-04-26T08:15:52.651Z,68.40
2023-04-26T08:17:58.184Z,64.00
2023-04-26T08:20:05.141Z,62.50
2023-04-26T08:22:12.859Z,60.90
2023-04-26T08:24:17.955Z,65.70
2023-04-26T08:26:23.070Z,59.40
2023-04-26T08:28:28.221Z,61.80
2023-04-26T08:30:33.474Z,63.30
2023-04-26T08:32:38.736Z,64.40
2023-04-26T08:34:44.029Z,60.00
2023-04-26T08:36:49.139Z,63.80
2023-04-26T08:38:58.200Z,62.30
2023-04-26T08:41:04.560Z,57.00
2023-04-26T08:43:11.811Z,59.20
2023-04-26T08:45:18.961Z,58.70
2023-04-26T08:47:34.583Z,54.00
2023-04-26T08:49:44.595Z,52.60
2023-04-26T08:51:50.480Z,54.50
2023-04-26T08:54:02.742Z,55.80
2023-04-26T08:56:11.346Z,54.40
2023-04-26T08:58:17.174Z,60.00
2023-04-26T09:00:23.515Z,56.20
2023-04-26T09:02:28.720Z,56.40
2023-04-26T09:04:34.622Z,55.40
2023-04-26T09:06:40.494Z,51.10
2023-04-26T09:08:46.943Z,52.90
2023-04-26T09:10:54.951Z,52.40
2023-04-26T09:13:01.952Z,50.60
2023-04-26T09:15:09.574Z,55.60
2023-04-26T09:17:29.239Z,48.80
2023-04-26T09:19:39.328Z,49.80
2023-04-26T09:21:47.410Z,47.80
2023-04-26T09:24:04.602Z,50.10
2023-04-26T09:26:23.449Z,51.70
2023-04-26T09:28:28.551Z,53.50
2023-04-26T09:30:41.325Z,53.90
2023-04-26T09:32:56.733Z,51.30
2023-04-26T09:35:01.851Z,47.80
2023-04-26T09:37:07.003Z,46.30
2023-04-26T09:39:13.581Z,48.40
2023-04-26T09:41:21.563Z,46.20
2023-04-26T09:43:26.926Z,47.00
2023-04-26T09:45:34.279Z,48.40
2023-04-26T09:47:40.067Z,54.00
2023-04-26T09:49:51.569Z,51.30
2023-04-26T09:52:07.833Z,55.90
2023-04-26T09:54:12.960Z,51.00
2023-04-26T09:56:22.961Z,49.60
2023-04-26T09:58:28.117Z,48.20
2023-04-26T10:00:34.352Z,48.40
2023-04-26T10:02:40.622Z,49.00
2023-04-26T10:04:49.238Z,48.70
2023-04-26T10:06:55.223Z,52.40
2023-04-26T10:09:00.666Z,45.50
2023-04-26T10:11:07.746Z,45.60
2023-04-26T10:13:16.649Z,47.50
2023-04-26T10:15:22.113Z,49.20
2023-04-26T10:17:27.214Z,48.50
2023-04-26T10:19:33.461Z,46.30
2023-04-26T10:21:42.719Z,45.60
2023-04-26T10:23:48.221Z,43.30
2023-04-26T10:25:53.319Z,44.90
2023-04-26T10:27:58.737Z,47.70
2023-04-26T10:30:14.998Z,45.70
2023-04-26T10:32:20.402Z,46.50
2023-04-26T10:34:26.780Z,46.10
2023-04-26T10:36:32.365Z,46.50
2023-04-26T10:38:39.854Z,47.70
2023-04-26T10:40:46.291Z,45.40
2023-04-26T10:42:51.385Z,42.20
2023-04-26T10:44:57.436Z,45.30
2023-04-26T10:47:05.274Z,46.40
2023-04-26T10:49:25.757Z,44.00
2023-04-26T10:51:32.033Z,44.60
2023-04-26T10:54:01.860Z,45.50
2023-04-26T10:56:07.158Z,47.70
2023-04-26T10:58:30.536Z,44.10
2023-04-26T11:00:39.083Z,42.90
2023-04-26T11:02:58.822Z,43.90
2023-04-26T11:05:07.519Z,47.60
2023-04-26T11:07:12.767Z,43.30
2023-04-26T11:09:40.031Z,45.10
2023-04-26T11:11:56.193Z,45.10
2023-04-26T11:14:05.838Z,42.20
2023-04-26T11:16:13.002Z,45.50
2023-04-26T11:18:23.337Z,43.30
2023-04-26T11:20:33.891Z,47.30
2023-04-26T11:22:43.365Z,47.60
2023-04-26T11:24:49.003Z,47.10
2023-04-26T11:26:58.428Z,47.60
2023-04-26T11:29:03.853Z,45.90
2023-04-26T11:31:10.071Z,47.70
2023-04-26T11:33:24.426Z,47.50
2023-04-26T11:35:31.112Z,47.40
2023-04-26T11:37:37.658Z,45.90
2023-04-26T11:39:43.079Z,46.40
2023-04-26T11:41:48.168Z,46.60
2023-04-26T11:43:53.678Z,47.00
2023-04-26T11:46:03.092Z,46.70
2023-04-26T11:48:11.067Z,47.60
2023-04-26T11:50:20.361Z,47.20
2023-04-26T11:52:25.659Z,45.10
2023-04-26T11:54:32.572Z,46.50
2023-04-26T11:56:37.713Z,43.00
2023-04-26T11:58:43.386Z,46.30
2023-04-26T12:01:02.485Z,42.00
2023-04-26T12:03:11.173Z,44.50
2023-04-26T12:05:30.736Z,45.40
2023-04-26T12:07:38.857Z,42.70
2023-04-26T12:09:45.660Z,45.00
2023-04-26T12:11:56.317Z,44.20
2023-04-26T12:14:02.691Z,43.80
2023-04-26T12:16:22.406Z,48.20
2023-04-26T12:18:35.242Z,44.30
2023-04-26T12:20:46.743Z,43.20
2023-04-26T12:23:07.715Z,46.20
2023-04-26T12:25:14.127Z,46.90
2023-04-26T12:27:24.631Z,44.60
2023-04-26T12:29:32.171Z,40.40
2023-04-26T12:31:37.560Z,45.70
2023-04-26T12:33:42.735Z,41.90
2023-04-26T12:35:51.004Z,41.40
2023-04-26T12:37:57.212Z,43.50
2023-04-26T12:40:02.338Z,43.70
2023-04-26T12:42:07.931Z,47.10
2023-04-26T12:44:14.484Z,44.70
2023-04-26T12:46:19.836Z,42.80
2023-04-26T12:48:25.016Z,43.20
2023-04-26T12:50:30.610Z,43.40
2023-04-26T12:52:38.642Z,40.50
2023-04-26T12:54:44.955Z,45.60
2023-04-26T12:56:50.032Z,44.50
2023-04-26T12:58:55.298Z,43.00
2023-04-26T13:01:00.728Z,42.40
2023-04-26T13:03:06.180Z,41.70
2023-04-26T13:05:12.631Z,46.10
2023-04-26T13:07:18.038Z,41.30
2023-04-26T13:09:25.835Z,43.20
2023-04-26T13:11:31.216Z,40.70
2023-04-26T13:13:43.671Z,39.00
2023-04-26T13:15:49.869Z,41.30
2023-04-26T13:17:55.034Z,37.00
2023-04-26T13:20:00.149Z,37.40
2023-04-26T13:22:08.470Z,42.00
2023-04-26T13:24:13.572Z,39.80
2023-04-26T13:26:21.309Z,42.60
2023-04-26T13:28:26.387Z,36.40
2023-04-26T13:30:31.805Z,37.10
2023-04-26T13:32:36.989Z,39.90
2023-04-26T13:34:42.493Z,42.10
2023-04-26T13:36:47.721Z,42.60
2023-04-26T13:38:52.796Z,41.80
2023-04-26T13:40:58.188Z,40.60
2023-04-26T13:43:05.882Z,44.40
2023-04-26T13:45:17.006Z,40.40
2023-04-26T13:47:23.600Z,42.60
2023-04-26T13:49:28.962Z,41.80
2023-04-26T13:51:34.970Z,41.60
2023-04-26T13:53:40.096Z,42.20
2023-04-26T13:55:45.819Z,37.10
2023-04-26T13:57:50.941Z,42.00
2023-04-26T13:59:58.632Z,40.10
2023-04-26T14:02:04.050Z,42.00
2023-04-26T14:04:10.510Z,41.70
2023-04-26T14:06:16.763Z,36.50
2023-04-26T14:08:22.191Z,42.20
2023-04-26T14:10:27.313Z,36.50
2023-04-26T14:12:32.776Z,37.50
2023-04-26T14:14:38.143Z,37.50
2023-04-26T14:16:46.113Z,39.20
2023-04-26T14:18:51.231Z,40.80
2023-04-26T14:20:56.590Z,36.50
2023-04-26T14:23:01.666Z,36.30
2023-04-26T14:25:08.193Z,33.70
2023-04-26T14:27:13.535Z,33.80
2023-04-26T14:29:18.591Z,31.10
2023-04-26T14:31:26.489Z,33.10
2023-04-26T14:33:34.148Z,42.10
2023-04-26T14:35:39.350Z,39.60
2023-04-26T14:37:44.854Z,37.90
2023-04-26T14:39:49.920Z,34.70
2023-04-26T14:41:56.029Z,38.40
2023-04-26T14:44:01.225Z,34.30
2023-04-26T14:46:08.085Z,34.40
2023-04-26T14:48:13.650Z,34.70
2023-04-26T14:50:21.663Z,35.10
2023-04-26T14:52:29.110Z,36.70
2023-04-26T14:54:34.229Z,36.90
2023-04-26T14:56:40.540Z,35.40
2023-04-26T14:58:45.632Z,35.70
2023-04-26T15:00:50.751Z,37.30
2023-04-26T15:02:56.116Z,33.80
2023-04-26T15:05:01.419Z,30.70
2023-04-26T15:07:15.304Z,33.60
2023-04-26T15:09:30.578Z,30.60
2023-04-26T15:11:37.277Z,32.90
2023-04-26T15:13:42.989Z,33.30
2023-04-26T15:15:48.412Z,31.80
2023-04-26T15:17:53.667Z,34.00
2023-04-26T15:19:58.874Z,32.00
2023-04-26T15:22:04.336Z,38.90
2023-04-26T15:24:12.742Z,33.90
2023-04-26T15:26:17.918Z,35.50
2023-04-26T15:28:23.014Z,38.30
2023-04-26T15:30:30.441Z,35.40
2023-04-26T15:32:35.560Z,35.20
2023-04-26T15:34:45.397Z,37.10
2023-04-26T15:36:50.576Z,36.70
2023-04-26T15:38:55.728Z,33.80
2023-04-26T15:41:03.442Z,36.60
2023-04-26T15:43:08.518Z,33.70
2023-04-26T15:45:14.601Z,35.00
2023-04-26T15:47:19.743Z,36.00
2023-04-26T15:49:26.655Z,33.70
2023-04-26T15:51:31.987Z,33.20
2023-04-26T15:53:43.177Z,31.90
2023-04-26T15:55:48.820Z,31.30
2023-04-26T15:57:56.824Z,32.50
2023-04-26T16:00:01.954Z,31.20
2023-04-26T16:02:09.916Z,33.40
2023-04-26T16:04:15.124Z,33.60
2023-04-26T16:06:20.631Z,33.50
2023-04-26T16:08:39.535Z,36.10
2023-04-26T16:10:45.255Z,33.40
2023-04-26T16:12:51.028Z,30.90
2023-04-26T16:15:00.583Z,35.60
2023-04-26T16:17:06.378Z,35.20
2023-04-26T16:19:12.512Z,33.20
2023-04-26T16:21:18.184Z,33.00
2023-04-26T16:23:23.704Z,35.30
2023-04-26T16:25:28.739Z,30.40
2023-04-26T16:27:34.293Z,32.40
2023-04-26T16:29:39.789Z,33.00
2023-04-26T16:31:47.468Z,31.70
2023-04-26T16:33:52.804Z,31.70
2023-04-26T16:35:58.191Z,31.50
2023-04-26T16:38:03.248Z,32.00
2023-04-26T16:40:11.450Z,33.50
2023-04-26T16:42:16.646Z,33.30
2023-04-26T16:44:21.707Z,32.40
2023-04-26T16:46:27.152Z,34.50
2023-04-26T16:48:36.159Z,31.70
2023-04-26T16:50:41.677Z,34.10
2023-04-26T16:52:47.637Z,37.40
2023-04-26T16:54:55.682Z,36.30
2023-04-26T16:57:00.829Z,37.80
2023-04-26T16:59:05.910Z,37.50
2023-04-26T17:01:11.038Z,37.60
2023-04-26T17:03:16.572Z,37.10
2023-04-26T17:07:31.835Z,38.30
2023-04-26T17:09:38.543Z,41.20
2023-04-26T17:11:44.996Z,40.90
2023-04-26T17:13:50.028Z,40.00
2023-04-26T17:15:58.427Z,41.20
2023-04-26T17:18:04.647Z,39.50
2023-04-26T17:20:13.633Z,41.70
2023-04-26T17:22:22.090Z,43.50
2023-04-26T17:24:27.961Z,44.30
2023-04-26T17:26:33.040Z,45.00
2023-04-26T17:28:39.551Z,43.10
2023-04-26T17:30:45.357Z,43.60
2023-04-26T17:32:50.659Z,42.50
2023-04-26T17:34:55.711Z,42.50
2023-04-26T17:37:01.154Z,43.80
2023-04-26T17:39:09.454Z,45.30
2023-04-26T17:41:15.217Z,47.50
2023-04-26T17:43:20.517Z,45.00
2023-04-26T17:45:26.121Z,49.70
2023-04-26T17:47:31.960Z,46.00
2023-04-26T17:49:37.004Z,48.60
2023-04-26T17:51:42.017Z,46.50
2023-04-26T17:53:47.113Z,45.80
2023-04-26T17:55:55.600Z,47.80
2023-04-26T17:58:00.970Z,49.60
2023-04-26T18:00:07.203Z,48.20
2023-04-26T18:02:12.415Z,47.80
2023-04-26T18:04:18.931Z,48.20
2023-04-26T18:06:24.294Z,47.50
2023-04-26T18:08:30.256Z,49.60
2023-04-26T18:10:35.421Z,48.70
2023-04-26T18:12:43.846Z,50.10
2023-04-26T18:14:48.921Z,50.00
2023-04-26T18:16:54.101Z,52.30
2023-04-26T18:18:59.588Z,52.40
2023-04-26T18:21:04.622Z,54.00
2023-04-26T18:23:10.057Z,54.20
2023-04-26T18:25:15.657Z,53.60
2023-04-26T18:27:21.030Z,56.50
2023-04-26T18:29:28.640Z,54.60
2023-04-26T18:31:35.636Z,58.30
2023-04-26T18:33:40.740Z,58.20
2023-04-26T18:35:46.162Z,57.40
2023-04-26T18:37:51.374Z,59.90
2023-04-26T18:39:59.312Z,59.20
2023-04-26T18:42:04.667Z,56.90
2023-04-26T18:44:13.321Z,58.00
2023-04-26T18:46:21.604Z,61.20
2023-04-26T18:48:26.689Z,63.70
2023-04-26T18:50:31.751Z,62.60
2023-04-26T18:52:40.166Z,63.40
2023-04-26T18:54:45.835Z,64.20
2023-04-26T18:56:50.921Z,63.80
2023-04-26T18:58:56.755Z,65.00
2023-04-26T19:01:01.886Z,66.50
2023-04-26T19:03:09.683Z,67.90
2023-04-26T19:05:16.007Z,69.40
2023-04-26T19:07:21.630Z,69.90
2023-04-26T19:09:26.848Z,71.80
2023-04-26T19:11:32.053Z,72.80
2023-04-26T19:13:37.325Z,73.40
2023-04-26T19:15:42.397Z,72.80
2023-04-26T19:17:47.494Z,74.30
2023-04-26T19:19:55.587Z,74.80
2023-04-26T19:22:01.260Z,75.50
2023-04-26T19:24:07.359Z,76.10
2023-04-26T19:26:14.977Z,75.20
2023-04-26T19:28:20.393Z,75.00
2023-04-26T19:30:26.256Z,75.70
2023-04-26T19:32:31.309Z,75.00
2023-04-26T19:34:39.018Z,74.50
2023-04-26T19:36:46.632Z,76.30
2023-04-26T19:38:52.917Z,76.00
2023-04-26T19:40:59.145Z,76.10
2023-04-26T19:43:04.150Z,77.20
2023-04-26T19:45:11.167Z,78.40
2023-04-26T19:47:17.112Z,78.90
2023-04-26T19:49:22.225Z,79.40
2023-04-26T19:51:27.680Z,79.60
2023-04-26T19:53:35.373Z,80.00
2023-04-26T19:55:42.462Z,78.90
2023-04-26T19:57:47.891Z,79.10
2023-04-26T19:59:53.412Z,79.10
2023-04-26T20:01:59.393Z,80.20
2023-04-26T20:04:05.564Z,79.90
2023-04-26T20:06:11.844Z,79.80
2023-04-26T20:08:17.071Z,80.30
2023-04-26T20:10:25.006Z,80.70
2023-04-26T20:12:30.460Z,81.10
2023-04-26T20:14:36.690Z,80.80
2023-04-26T20:16:41.773Z,80.90
2023-04-26T20:18:47.633Z,81.70
2023-04-26T20:20:53.081Z,80.50
2023-04-26T20:22:58.205Z,81.00
2023-04-26T20:25:04.300Z,80.60
2023-04-26T20:27:11.919Z,81.30
2023-04-26T20:29:17.873Z,81.40
2023-04-26T20:31:23.039Z,80.60
2023-04-26T20:33:28.209Z,80.70
2023-04-26T20:35:33.268Z,80.70
2023-04-26T20:37:38.771Z,79.60
2023-04-26T20:39:44.480Z,79.10
2023-04-26T20:41:49.740Z,80.10
2023-04-26T20:43:57.411Z,81.30
2023-04-26T20:46:02.476Z,81.70
2023-04-26T20:48:08.600Z,80.90
2023-04-26T20:50:14.665Z,79.60
2023-04-26T20:52:19.927Z,82.10
2023-04-26T20:54:25.098Z,80.90
2023-04-26T20:56:30.142Z,82.30
2023-04-26T20:58:35.235Z,80.40
2023-04-26T21:00:43.173Z,80.30
2023-04-26T21:02:48.936Z,80.90
2023-04-26T21:04:54.677Z,80.70
2023-04-26T21:06:59.845Z,80.10
2023-04-26T21:09:05.546Z,80.20
2023-04-26T21:11:10.682Z,78.90
2023-04-26T21:13:15.933Z,80.20
2023-04-26T21:15:21.978Z,81.20
2023-04-26T21:17:29.705Z,79.90
2023-04-26T21:19:35.567Z,80.60
2023-04-26T21:21:41.065Z,80.00
2023-04-26T21:23:46.459Z,81.50
2023-04-26T21:25:52.073Z,81.30
2023-04-26T21:27:58.380Z,81.20
2023-04-26T21:30:04.623Z,82.20
2023-04-26T21:32:10.528Z,81.20
2023-04-26T21:34:18.153Z,82.10
2023-04-26T21:36:23.516Z,81.20
2023-04-26T21:38:28.692Z,82.60
2023-04-26T21:40:34.476Z,82.10
2023-04-26T21:42:39.534Z,81.60
2023-04-26T21:44:44.579Z,82.00
2023-04-26T21:46:49.689Z,82.00
2023-04-26T21:48:54.882Z,80.70
2023-04-26T21:51:02.997Z,82.20
2023-04-26T21:53:08.143Z,82.40
2023-04-26T21:55:13.900Z,82.10
2023-04-26T21:57:20.359Z,82.40
2023-04-26T21:59:25.355Z,82.70
2023-04-26T22:01:30.414Z,83.40
2023-04-26T22:03:36.005Z,83.40
2023-04-26T22:05:41.327Z,83.10
2023-04-26T22:07:49.108Z,82.10
2023-04-26T22:09:54.112Z,83.00
2023-04-26T22:11:59.153Z,82.10
2023-04-26T22:14:04.353Z,83.00
2023-04-26T22:16:10.088Z,83.30
2023-04-26T22:18:15.180Z,83.20
2023-04-26T22:20:21.521Z,84.50
2023-04-26T22:22:26.584Z,83.20
2023-04-26T22:24:34.209Z,83.50
2023-04-26T22:26:39.228Z,84.00
2023-04-26T22:28:44.254Z,83.20
2023-04-26T22:30:49.556Z,83.70
2023-04-26T22:32:55.748Z,84.90
2023-04-26T22:35:00.857Z,85.20
2023-04-26T22:37:19.727Z,83.70
2023-04-26T22:39:26.585Z,84.00
2023-04-26T22:41:35.033Z,84.90
2023-04-26T22:43:41.636Z,84.70
2023-04-26T22:45:46.837Z,85.40
2023-04-26T22:47:52.222Z,85.30
2023-04-26T22:49:57.719Z,85.30
2023-04-26T22:52:11.567Z,85.60
2023-04-26T22:54:22.572Z,85.30
2023-04-26T22:56:27.687Z,84.50
2023-04-26T22:58:35.848Z,85.00
2023-04-26T23:00:40.878Z,85.30
2023-04-26T23:02:46.100Z,85.80
2023-04-26T23:04:52.045Z,85.80
2023-04-26T23:06:57.418Z,84.50
2023-04-26T23:09:02.703Z,85.40
2023-04-26T23:11:11.177Z,85.50
2023-04-26T23:13:17.236Z,85.90
2023-04-26T23:15:25.633Z,86.20
2023-04-26T23:17:32.195Z,86.70
2023-04-26T23:19:38.320Z,85.30
2023-04-26T23:21:43.435Z,86.60
2023-04-26T23:23:48.491Z,85.70
2023-04-26T23:25:53.981Z,86.10
2023-04-26T23:27:59.017Z,85.90
2023-04-26T23:30:04.805Z,86.80
2023-04-26T23:32:12.614Z,86.30
2023-04-26T23:34:17.867Z,85.90
2023-04-26T23:36:22.889Z,86.90
2023-04-26T23:38:27.978Z,86.90
2023-04-26T23:40:33.263Z,87.30
2023-04-26T23:42:38.649Z,87.10
2023-04-26T23:44:43.728Z,87.50
2023-04-26T23:46:48.825Z,87.00
2023-04-26T23:48:56.767Z,86.70
2023-04-26T23:51:02.743Z,87.00
2023-04-26T23:53:08.057Z,87.10
2023-04-26T23:55:14.016Z,88.00
2023-04-26T23:57:19.055Z,87.90
2023-04-26T23:59:24.072Z,88.40
